Terminal Aerodrome Forecast
Issued by NWS Sterling, VA

Current Version | Previous Version | Graphics & Text | Print | Product List | Glossary On
Versions: 1 2 3 4 5 6 7 8 9 10 11 12 13 14 15 16 17 18 19 20 21 22 23 24
000
FTUS41 KLWX 070254 AAA
TAFIAD
TAF AMD
KIAD 070254Z 0703/0806 35008KT 5SM BR OVC005
     FM070600 34003KT 2SM BR OVC003
     FM071400 32008KT P6SM BKN008
     FM071500 32009KT P6SM BKN060
     FM080300 00000KT P6SM SCT250=

USA.gov is the U.S. government's official web portal to all federal, state and local government web resources and services.